sensor_id;sensor_type;location;lat;lon;timestamp;temperature;humidity
12981;DHT22;6555;50.468;8.480;2023-05-03T00:01:18;10.00;44.70
12981;DHT22;6555;50.468;8.480;2023-05-03T00:06:51;9.90;44.60
12981;DHT22;6555;50.468;8.480;2023-05-03T00:12:09;9.90;44.80
12981;DHT22;6555;50.468;8.480;2023-05-03T00:17:39;9.80;44.70
12981;DHT22;6555;50.468;8.480;2023-05-03T00:22:55;9.70;44.80
12981;DHT22;6555;50.468;8.480;2023-05-03T00:28:27;9.60;44.60
12981;DHT22;6555;50.468;8.480;2023-05-03T00:33:46;9.60;44.80
12981;DHT22;6555;50.468;8.480;2023-05-03T00:39:16;9.50;44.70
12981;DHT22;6555;50.468;8.480;2023-05-03T00:44:34;9.40;44.90
12981;DHT22;6555;50.468;8.480;2023-05-03T00:50:06;9.30;44.80
12981;DHT22;6555;50.468;8.480;2023-05-03T00:55:27;9.30;45.00
12981;DHT22;6555;50.468;8.480;2023-05-03T01:01:01;9.20;44.70
12981;DHT22;6555;50.468;8.480;2023-05-03T01:06:29;9.10;44.90
12981;DHT22;6555;50.468;8.480;2023-05-03T01:12:10;9.00;44.80
12981;DHT22;6555;50.468;8.480;2023-05-03T01:17:35;8.90;44.90
12981;DHT22;6555;50.468;8.480;2023-05-03T01:23:13;8.80;44.80
12981;DHT22;6555;50.468;8.480;2023-05-03T01:28:32;8.70;44.90
12981;DHT22;6555;50.468;8.480;2023-05-03T01:34:13;8.60;44.70
12981;DHT22;6555;50.468;8.480;2023-05-03T01:39:36;8.50;45.10
12981;DHT22;6555;50.468;8.480;2023-05-03T01:45:10;8.50;45.10
12981;DHT22;6555;50.468;8.480;2023-05-03T01:50:29;8.40;45.10
12981;DHT22;6555;50.468;8.480;2023-05-03T01:55:59;8.30;45.00
12981;DHT22;6555;50.468;8.480;2023-05-03T02:01:17;8.30;45.20
12981;DHT22;6555;50.468;8.480;2023-05-03T02:06:50;8.20;45.00
12981;DHT22;6555;50.468;8.480;2023-05-03T02:12:08;8.20;45.20
12981;DHT22;6555;50.468;8.480;2023-05-03T02:17:41;8.10;45.00
12981;DHT22;6555;50.468;8.480;2023-05-03T02:22:59;8.10;45.20
12981;DHT22;6555;50.468;8.480;2023-05-03T02:28:29;8.00;44.80
12981;DHT22;6555;50.468;8.480;2023-05-03T02:33:48;7.80;44.90
12981;DHT22;6555;50.468;8.480;2023-05-03T02:39:19;7.80;45.00
12981;DHT22;6555;50.468;8.480;2023-05-03T02:44:37;7.70;45.20
12981;DHT22;6555;50.468;8.480;2023-05-03T02:50:10;7.60;45.00
12981;DHT22;6555;50.468;8.480;2023-05-03T02:55:27;7.60;45.20
12981;DHT22;6555;50.468;8.480;2023-05-03T03:00:57;7.40;44.80
12981;DHT22;6555;50.468;8.480;2023-05-03T03:06:15;7.40;45.10
12981;DHT22;6555;50.468;8.480;2023-05-03T03:11:45;7.30;45.10
12981;DHT22;6555;50.468;8.480;2023-05-03T03:17:05;7.20;45.30
12981;DHT22;6555;50.468;8.480;2023-05-03T03:22:38;7.10;45.20
12981;DHT22;6555;50.468;8.480;2023-05-03T03:27:55;7.00;45.40
12981;DHT22;6555;50.468;8.480;2023-05-03T03:33:26;7.00;45.10
12981;DHT22;6555;50.468;8.480;2023-05-03T03:38:50;6.90;45.40
12981;DHT22;6555;50.468;8.480;2023-05-03T03:44:21;6.90;45.50
12981;DHT22;6555;50.468;8.480;2023-05-03T03:49:39;6.80;45.60
12981;DHT22;6555;50.468;8.480;2023-05-03T03:55:12;6.80;45.40
12981;DHT22;6555;50.468;8.480;2023-05-03T04:00:30;6.80;45.70
12981;DHT22;6555;50.468;8.480;2023-05-03T04:06:26;6.80;46.10
12981;DHT22;6555;50.468;8.480;2023-05-03T04:12:40;6.80;45.90
12981;DHT22;6555;50.468;8.480;2023-05-03T04:17:57;6.70;45.50
12981;DHT22;6555;50.468;8.480;2023-05-03T04:23:27;6.60;45.50
12981;DHT22;6555;50.468;8.480;2023-05-03T04:28:47;6.60;45.60
12981;DHT22;6555;50.468;8.480;2023-05-03T04:34:18;6.60;45.50
12981;DHT22;6555;50.468;8.480;2023-05-03T04:39:37;6.50;45.80
12981;DHT22;6555;50.468;8.480;2023-05-03T04:45:10;6.50;45.70
12981;DHT22;6555;50.468;8.480;2023-05-03T04:50:30;6.50;46.10
12981;DHT22;6555;50.468;8.480;2023-05-03T04:56:01;6.50;45.90
12981;DHT22;6555;50.468;8.480;2023-05-03T05:01:20;6.50;46.10
12981;DHT22;6555;50.468;8.480;2023-05-03T05:06:52;6.50;46.10
12981;DHT22;6555;50.468;8.480;2023-05-03T05:12:09;6.60;46.70
12981;DHT22;6555;50.468;8.480;2023-05-03T05:17:44;6.70;46.70
12981;DHT22;6555;50.468;8.480;2023-05-03T05:23:01;6.80;46.90
12981;DHT22;6555;50.468;8.480;2023-05-03T05:28:30;6.90;46.70
12981;DHT22;6555;50.468;8.480;2023-05-03T05:33:50;7.10;47.10
12981;DHT22;6555;50.468;8.480;2023-05-03T05:39:19;7.20;47.00
12981;DHT22;6555;50.468;8.480;2023-05-03T05:44:37;7.30;47.40
12981;DHT22;6555;50.468;8.480;2023-05-03T05:50:09;7.50;47.20
12981;DHT22;6555;50.468;8.480;2023-05-03T05:55:32;7.60;48.30
12981;DHT22;6555;50.468;8.480;2023-05-03T06:01:01;7.80;47.30
12981;DHT22;6555;50.468;8.480;2023-05-03T06:06:20;8.00;47.80
12981;DHT22;6555;50.468;8.480;2023-05-03T06:11:50;8.30;47.80
12981;DHT22;6555;50.468;8.480;2023-05-03T06:17:10;8.50;48.00
12981;DHT22;6555;50.468;8.480;2023-05-03T06:22:42;8.70;47.90
12981;DHT22;6555;50.468;8.480;2023-05-03T06:28:00;9.00;48.10
12981;DHT22;6555;50.468;8.480;2023-05-03T06:33:32;9.30;47.90
12981;DHT22;6555;50.468;8.480;2023-05-03T06:38:51;9.50;48.10
12981;DHT22;6555;50.468;8.480;2023-05-03T06:44:21;9.80;47.80
12981;DHT22;6555;50.468;8.480;2023-05-03T06:49:41;10.00;47.90
12981;DHT22;6555;50.468;8.480;2023-05-03T06:55:34;10.30;47.90
12981;DHT22;6555;50.468;8.480;2023-05-03T07:00:51;10.50;48.10
12981;DHT22;6555;50.468;8.480;2023-05-03T07:06:22;10.70;47.80
12981;DHT22;6555;50.468;8.480;2023-05-03T07:11:53;11.00;47.90
12981;DHT22;6555;50.468;8.480;2023-05-03T07:17:24;11.30;48.60
12981;DHT22;6555;50.468;8.480;2023-05-03T07:22:41;11.60;47.70
12981;DHT22;6555;50.468;8.480;2023-05-03T07:28:12;11.80;47.70
12981;DHT22;6555;50.468;8.480;2023-05-03T07:33:29;12.00;47.50
12981;DHT22;6555;50.468;8.480;2023-05-03T07:38:59;12.20;47.60
12981;DHT22;6555;50.468;8.480;2023-05-03T07:44:16;12.50;47.50
12981;DHT22;6555;50.468;8.480;2023-05-03T07:49:48;12.70;47.60
12981;DHT22;6555;50.468;8.480;2023-05-03T07:55:07;12.90;47.30
12981;DHT22;6555;50.468;8.480;2023-05-03T08:00:38;13.10;47.30
12981;DHT22;6555;50.468;8.480;2023-05-03T08:05:57;13.30;47.10
12981;DHT22;6555;50.468;8.480;2023-05-03T08:11:27;13.50;47.30
12981;DHT22;6555;50.468;8.480;2023-05-03T08:16:45;13.70;47.00
12981;DHT22;6555;50.468;8.480;2023-05-03T08:22:19;13.80;47.10
12981;DHT22;6555;50.468;8.480;2023-05-03T08:27:36;14.10;46.90
12981;DHT22;6555;50.468;8.480;2023-05-03T08:33:11;14.30;47.10
12981;DHT22;6555;50.468;8.480;2023-05-03T08:38:28;14.40;46.60
12981;DHT22;6555;50.468;8.480;2023-05-03T08:44:07;14.60;46.90
12981;DHT22;6555;50.468;8.480;2023-05-03T08:49:29;14.80;46.60
12981;DHT22;6555;50.468;8.480;2023-05-03T08:55:03;15.00;46.70
12981;DHT22;6555;50.468;8.480;2023-05-03T09:00:27;15.20;46.40
12981;DHT22;6555;50.468;8.480;2023-05-03T09:05:58;15.40;45.70
12981;DHT22;6555;50.468;8.480;2023-05-03T09:11:20;15.50;45.60
12981;DHT22;6555;50.468;8.480;2023-05-03T09:16:53;15.70;46.00
12981;DHT22;6555;50.468;8.480;2023-05-03T09:22:12;15.80;45.40
12981;DHT22;6555;50.468;8.480;2023-05-03T09:27:44;15.90;45.40
12981;DHT22;6555;50.468;8.480;2023-05-03T09:33:00;16.00;45.00
12981;DHT22;6555;50.468;8.480;2023-05-03T09:38:34;16.10;44.50
12981;DHT22;6555;50.468;8.480;2023-05-03T09:43:52;16.20;43.90
12981;DHT22;6555;50.468;8.480;2023-05-03T09:49:33;16.20;44.70
12981;DHT22;6555;50.468;8.480;2023-05-03T09:54:53;16.30;44.00
12981;DHT22;6555;50.468;8.480;2023-05-03T10:00:24;16.30;44.50
12981;DHT22;6555;50.468;8.480;2023-05-03T10:05:46;16.60;44.00
12981;DHT22;6555;50.468;8.480;2023-05-03T10:11:15;16.70;44.10
12981;DHT22;6555;50.468;8.480;2023-05-03T10:16:44;16.80;43.60
12981;DHT22;6555;50.468;8.480;2023-05-03T10:22:05;16.90;43.50
12981;DHT22;6555;50.468;8.480;2023-05-03T10:27:49;17.00;44.20
12981;DHT22;6555;50.468;8.480;2023-05-03T10:33:33;17.20;43.10
12981;DHT22;6555;50.468;8.480;2023-05-03T10:39:05;17.40;43.70
12981;DHT22;6555;50.468;8.480;2023-05-03T10:44:27;17.60;43.70
12981;DHT22;6555;50.468;8.480;2023-05-03T10:50:23;17.90;44.30
12981;DHT22;6555;50.468;8.480;2023-05-03T10:56:02;18.20;43.20
12981;DHT22;6555;50.468;8.480;2023-05-03T11:01:36;18.50;43.50
12981;DHT22;6555;50.468;8.480;2023-05-03T11:06:53;18.70;43.60
12981;DHT22;6555;50.468;8.480;2023-05-03T11:12:28;18.80;43.30
12981;DHT22;6555;50.468;8.480;2023-05-03T11:17:47;19.00;43.00
12981;DHT22;6555;50.468;8.480;2023-05-03T11:23:18;19.10;43.50
12981;DHT22;6555;50.468;8.480;2023-05-03T11:28:36;19.30;43.00
12981;DHT22;6555;50.468;8.480;2023-05-03T11:34:09;19.40;43.00
12981;DHT22;6555;50.468;8.480;2023-05-03T11:39:31;19.60;42.50
12981;DHT22;6555;50.468;8.480;2023-05-03T11:45:07;19.60;42.80
12981;DHT22;6555;50.468;8.480;2023-05-03T11:56:01;19.80;41.60
12981;DHT22;6555;50.468;8.480;2023-05-03T12:01:38;20.00;41.60
12981;DHT22;6555;50.468;8.480;2023-05-03T12:06:55;20.00;39.20
12981;DHT22;6555;50.468;8.480;2023-05-03T12:12:28;20.00;42.10
12981;DHT22;6555;50.468;8.480;2023-05-03T12:17:56;20.10;41.60
12981;DHT22;6555;50.468;8.480;2023-05-03T12:23:39;20.30;41.80
12981;DHT22;6555;50.468;8.480;2023-05-03T12:29:01;20.40;39.40
12981;DHT22;6555;50.468;8.480;2023-05-03T12:34:38;20.50;41.10
12981;DHT22;6555;50.468;8.480;2023-05-03T12:39:59;20.60;40.20
12981;DHT22;6555;50.468;8.480;2023-05-03T12:46:13;20.60;41.10
12981;DHT22;6555;50.468;8.480;2023-05-03T12:51:42;20.80;40.50
12981;DHT22;6555;50.468;8.480;2023-05-03T12:57:37;21.00;41.70
12981;DHT22;6555;50.468;8.480;2023-05-03T13:03:18;21.30;40.10
12981;DHT22;6555;50.468;8.480;2023-05-03T13:09:04;21.50;40.20
12981;DHT22;6555;50.468;8.480;2023-05-03T13:14:34;21.50;38.80
12981;DHT22;6555;50.468;8.480;2023-05-03T13:20:07;21.60;40.40
12981;DHT22;6555;50.468;8.480;2023-05-03T13:25:26;21.70;39.00
12981;DHT22;6555;50.468;8.480;2023-05-03T13:31:02;21.80;40.20
12981;DHT22;6555;50.468;8.480;2023-05-03T13:36:20;22.00;38.90
12981;DHT22;6555;50.468;8.480;2023-05-03T13:41:58;22.20;38.70
12981;DHT22;6555;50.468;8.480;2023-05-03T13:47:29;22.20;38.10
12981;DHT22;6555;50.468;8.480;2023-05-03T13:53:08;22.20;38.10
12981;DHT22;6555;50.468;8.480;2023-05-03T13:58:31;22.20;37.50
12981;DHT22;6555;50.468;8.480;2023-05-03T14:04:15;22.30;39.40
12981;DHT22;6555;50.468;8.480;2023-05-03T14:09:34;22.60;37.80
12981;DHT22;6555;50.468;8.480;2023-05-03T14:15:15;22.70;38.90
12981;DHT22;6555;50.468;8.480;2023-05-03T14:26:10;22.90;37.60
12981;DHT22;6555;50.468;8.480;2023-05-03T14:31:14;22.90;37.80
12981;DHT22;6555;50.468;8.480;2023-05-03T14:36:22;22.90;38.20
12981;DHT22;6555;50.468;8.480;2023-05-03T14:41:32;23.00;38.00
12981;DHT22;6555;50.468;8.480;2023-05-03T14:46:46;23.20;37.70
12981;DHT22;6555;50.468;8.480;2023-05-03T14:52:11;23.30;37.10
12981;DHT22;6555;50.468;8.480;2023-05-03T14:57:32;23.40;37.50
12981;DHT22;6555;50.468;8.480;2023-05-03T15:02:41;23.50;37.50
12981;DHT22;6555;50.468;8.480;2023-05-03T15:07:48;23.60;37.70
12981;DHT22;6555;50.468;8.480;2023-05-03T15:12:55;23.60;37.40
12981;DHT22;6555;50.468;8.480;2023-05-03T15:17:58;23.60;37.50
12981;DHT22;6555;50.468;8.480;2023-05-03T15:23:08;23.50;37.10
12981;DHT22;6555;50.468;8.480;2023-05-03T15:28:21;23.60;36.90
12981;DHT22;6555;50.468;8.480;2023-05-03T15:39:26;23.70;36.60
12981;DHT22;6555;50.468;8.480;2023-05-03T15:45:04;23.70;36.70
12981;DHT22;6555;50.468;8.480;2023-05-03T15:50:28;23.80;36.00
12981;DHT22;6555;50.468;8.480;2023-05-03T15:56:09;23.80;37.00
12981;DHT22;6555;50.468;8.480;2023-05-03T16:01:45;23.80;36.00
12981;DHT22;6555;50.468;8.480;2023-05-03T16:07:07;23.80;35.60
12981;DHT22;6555;50.468;8.480;2023-05-03T16:12:37;23.80;36.60
12981;DHT22;6555;50.468;8.480;2023-05-03T16:18:20;23.90;36.60
12981;DHT22;6555;50.468;8.480;2023-05-03T16:23:58;23.90;35.70
12981;DHT22;6555;50.468;8.480;2023-05-03T16:29:42;23.90;36.40
12981;DHT22;6555;50.468;8.480;2023-05-03T16:35:14;23.90;35.70
12981;DHT22;6555;50.468;8.480;2023-05-03T16:40:53;23.90;35.90
12981;DHT22;6555;50.468;8.480;2023-05-03T16:46:16;23.70;34.80
12981;DHT22;6555;50.468;8.480;2023-05-03T16:52:00;23.50;35.40
12981;DHT22;6555;50.468;8.480;2023-05-03T16:57:17;23.30;34.80
12981;DHT22;6555;50.468;8.480;2023-05-03T17:02:54;23.10;35.70
12981;DHT22;6555;50.468;8.480;2023-05-03T17:08:22;23.00;35.10
12981;DHT22;6555;50.468;8.480;2023-05-03T17:14:00;22.80;34.80
12981;DHT22;6555;50.468;8.480;2023-05-03T17:19:50;22.80;34.90
12981;DHT22;6555;50.468;8.480;2023-05-03T17:42:59;22.50;36.00
12981;DHT22;6555;50.468;8.480;2023-05-03T18:34:31;20.80;36.00
12981;DHT22;6555;50.468;8.480;2023-05-03T18:45:42;20.30;36.10
12981;DHT22;6555;50.468;8.480;2023-05-03T18:51:14;20.10;36.20
12981;DHT22;6555;50.468;8.480;2023-05-03T18:56:45;19.90;36.40
12981;DHT22;6555;50.468;8.480;2023-05-03T19:02:09;19.60;36.30
12981;DHT22;6555;50.468;8.480;2023-05-03T19:07:58;19.50;36.40
12981;DHT22;6555;50.468;8.480;2023-05-03T19:13:42;19.30;36.30
12981;DHT22;6555;50.468;8.480;2023-05-03T19:18:54;19.10;36.40
12981;DHT22;6555;50.468;8.480;2023-05-03T19:40:56;18.40;36.60
12981;DHT22;6555;50.468;8.480;2023-05-03T19:46:33;18.20;36.60
12981;DHT22;6555;50.468;8.480;2023-05-03T19:51:49;18.00;36.60
12981;DHT22;6555;50.468;8.480;2023-05-03T19:57:25;17.90;36.80
12981;DHT22;6555;50.468;8.480;2023-05-03T20:02:42;17.70;36.90
12981;DHT22;6555;50.468;8.480;2023-05-03T20:08:31;17.60;36.90
12981;DHT22;6555;50.468;8.480;2023-05-03T20:13:54;17.50;37.10
12981;DHT22;6555;50.468;8.480;2023-05-03T20:19:25;17.40;37.00
12981;DHT22;6555;50.468;8.480;2023-05-03T20:25:11;17.20;37.10
12981;DHT22;6555;50.468;8.480;2023-05-03T20:30:45;17.00;36.90
12981;DHT22;6555;50.468;8.480;2023-05-03T20:36:02;16.90;37.30
12981;DHT22;6555;50.468;8.480;2023-05-03T20:41:40;16.70;37.20
12981;DHT22;6555;50.468;8.480;2023-05-03T20:47:04;16.50;37.50
12981;DHT22;6555;50.468;8.480;2023-05-03T20:52:38;16.30;37.30
12981;DHT22;6555;50.468;8.480;2023-05-03T20:58:00;16.10;37.40
12981;DHT22;6555;50.468;8.480;2023-05-03T21:03:42;15.90;37.30
12981;DHT22;6555;50.468;8.480;2023-05-03T21:08:58;15.70;37.60
12981;DHT22;6555;50.468;8.480;2023-05-03T21:14:28;15.50;37.50
12981;DHT22;6555;50.468;8.480;2023-05-03T21:19:46;15.30;37.80
12981;DHT22;6555;50.468;8.480;2023-05-03T21:25:16;15.20;37.70
12981;DHT22;6555;50.468;8.480;2023-05-03T21:30:33;15.00;37.90
12981;DHT22;6555;50.468;8.480;2023-05-03T21:36:06;14.90;37.90
12981;DHT22;6555;50.468;8.480;2023-05-03T21:41:23;14.70;38.10
12981;DHT22;6555;50.468;8.480;2023-05-03T21:46:55;14.70;38.00
12981;DHT22;6555;50.468;8.480;2023-05-03T21:52:13;14.60;38.20
12981;DHT22;6555;50.468;8.480;2023-05-03T21:57:48;14.50;38.20
12981;DHT22;6555;50.468;8.480;2023-05-03T22:03:20;14.40;38.30
12981;DHT22;6555;50.468;8.480;2023-05-03T22:08:39;14.30;38.50
12981;DHT22;6555;50.468;8.480;2023-05-03T22:14:10;14.20;38.20
12981;DHT22;6555;50.468;8.480;2023-05-03T22:19:28;14.10;38.40
12981;DHT22;6555;50.468;8.480;2023-05-03T22:24:48;14.00;38.20
12981;DHT22;6555;50.468;8.480;2023-05-03T22:30:20;14.00;38.30
12981;DHT22;6555;50.468;8.480;2023-05-03T22:35:42;13.90;38.60
12981;DHT22;6555;50.468;8.480;2023-05-03T22:41:15;13.70;38.30
12981;DHT22;6555;50.468;8.480;2023-05-03T22:46:31;13.70;38.60
12981;DHT22;6555;50.468;8.480;2023-05-03T22:52:02;13.50;38.40
12981;DHT22;6555;50.468;8.480;2023-05-03T22:57:21;13.40;38.50
12981;DHT22;6555;50.468;8.480;2023-05-03T23:02:52;13.30;38.50
12981;DHT22;6555;50.468;8.480;2023-05-03T23:08:12;13.20;38.70
12981;DHT22;6555;50.468;8.480;2023-05-03T23:13:48;13.00;38.50
12981;DHT22;6555;50.468;8.480;2023-05-03T23:19:05;13.00;38.80
12981;DHT22;6555;50.468;8.480;2023-05-03T23:24:37;12.90;38.60
12981;DHT22;6555;50.468;8.480;2023-05-03T23:29:56;12.70;38.70
12981;DHT22;6555;50.468;8.480;2023-05-03T23:35:26;12.50;38.50
12981;DHT22;6555;50.468;8.480;2023-05-03T23:40:42;12.40;38.90
12981;DHT22;6555;50.468;8.480;2023-05-03T23:46:16;12.20;38.80
12981;DHT22;6555;50.468;8.480;2023-05-03T23:51:40;12.10;39.20
12981;DHT22;6555;50.468;8.480;2023-05-03T23:57:11;12.00;39.30
